Time;durP1;ratioP1;P1;durP2;ratioP2;P2;SDS_P1;SDS_P2;PMS_P1;PMS_P2;Temp;Humidity;BMP_temperature;BMP_pressure;BME280_temperature;BME280_humidity;BME280_pressure;Samples;Min_cycle;Max_cycle;Signal;HPM_P1;HPM_P2
2024/04/10 00:03:05;;;;;;;9.00;5.53;;;16.50;99.90;;;;;;5416390;26;20220;-83
2024/04/10 00:06:30;;;;;;;11.37;5.87;;;16.40;99.90;;;;;;5417671;26;20228;-81
2024/04/10 00:09:52;;;;;;;8.40;5.37;;;16.30;99.90;;;;;;5416239;26;20346;-83
2024/04/10 00:13:17;;;;;;;9.20;5.77;;;16.30;99.90;;;;;;5418539;26;20771;-83
2024/04/10 00:23:53;;;;;;;11.10;5.97;;;16.10;99.90;;;;;;5418520;26;20492;-84
2024/04/10 00:27:16;;;;;;;10.23;5.80;;;16.10;99.90;;;;;;5415837;26;20708;-84
2024/04/10 00:30:35;;;;;;;7.93;5.67;;;16.00;99.90;;;;;;5418446;26;20302;-84
2024/04/10 00:34:00;;;;;;;10.23;5.70;;;16.00;99.90;;;;;;5415561;26;20325;-84
2024/04/10 00:37:34;;;;;;;9.27;5.77;;;15.90;99.90;;;;;;5416505;26;20258;-84
2024/04/10 00:40:59;;;;;;;11.30;5.80;;;15.90;99.90;;;;;;5414646;26;20320;-84
2024/04/10 00:44:12;;;;;;;10.30;5.50;;;15.90;99.90;;;;;;5416452;26;20263;-85
2024/04/10 00:47:37;;;;;;;9.10;5.70;;;15.90;99.90;;;;;;5418003;26;20208;-85
2024/04/10 00:50:44;;;;;;;8.10;5.70;;;15.90;99.90;;;;;;5415662;26;20237;-87
2024/04/10 00:54:09;;;;;;;8.43;5.70;;;15.80;99.90;;;;;;5416125;26;20255;-87
2024/04/10 00:57:18;;;;;;;7.93;5.63;;;15.80;99.90;;;;;;5417856;26;20213;-83
2024/04/10 01:00:24;;;;;;;7.93;5.60;;;15.80;99.90;;;;;;5416739;26;20265;-84
2024/04/10 01:03:34;;;;;;;10.23;6.43;;;15.80;99.90;;;;;;5416848;26;20212;-85
2024/04/10 01:10:51;;;;;;;10.73;5.93;;;15.70;99.90;;;;;;5415597;26;20266;-84
2024/04/10 01:14:16;;;;;;;10.20;5.63;;;15.70;99.90;;;;;;5416185;26;20258;-83
2024/04/10 01:17:09;;;;;;;9.67;5.40;;;15.70;99.90;;;;;;5416936;26;20220;-83
2024/04/10 01:20:52;;;;;;;10.40;5.70;;;15.70;99.90;;;;;;5417351;26;20280;-83
2024/04/10 01:24:17;;;;;;;11.30;5.77;;;15.60;99.90;;;;;;5417122;26;20225;-83
2024/04/10 01:27:39;;;;;;;8.27;5.60;;;15.60;99.90;;;;;;5417353;26;20224;-83
2024/04/10 01:30:46;;;;;;;8.90;5.70;;;15.60;99.90;;;;;;5414055;26;20212;-84
2024/04/10 01:34:11;;;;;;;12.13;5.60;;;15.50;99.90;;;;;;5417067;26;20216;-84
2024/04/10 01:37:24;;;;;;;11.97;5.70;;;15.50;99.90;;;;;;5413879;26;20274;-85
2024/04/10 01:44:26;;;;;;;9.87;5.70;;;15.50;99.90;;;;;;5415132;26;20688;-84
2024/04/10 01:51:35;;;;;;;10.43;5.90;;;15.40;99.90;;;;;;5415064;26;20360;-87
2024/04/10 01:55:00;;;;;;;10.97;5.83;;;15.30;99.90;;;;;;5413950;26;20615;-87
2024/04/10 01:58:22;;;;;;;14.17;6.30;;;15.20;99.90;;;;;;5416172;26;20259;-87
2024/04/10 02:01:49;;;;;;;11.00;5.67;;;15.20;99.90;;;;;;5415745;26;20216;-87
2024/04/10 02:05:18;;;;;;;10.73;6.63;;;15.10;99.90;;;;;;5414711;26;20607;-87
2024/04/10 02:08:43;;;;;;;9.27;5.83;;;15.10;99.90;;;;;;5414815;26;20217;-86
2024/04/10 02:19:11;;;;;;;9.17;5.63;;;14.90;99.90;;;;;;5414577;26;20224;-86
2024/04/10 02:22:39;;;;;;;8.87;6.03;;;14.80;99.90;;;;;;5412183;26;20220;-85
2024/04/10 02:25:55;;;;;;;10.70;6.40;;;14.80;99.90;;;;;;5414000;26;20220;-85
2024/04/10 02:29:11;;;;;;;9.30;5.93;;;14.70;99.90;;;;;;5415477;26;20280;-83
2024/04/10 02:32:43;;;;;;;13.73;6.37;;;14.70;99.90;;;;;;5417433;26;20744;-83
2024/04/10 02:35:52;;;;;;;8.23;6.40;;;14.70;99.90;;;;;;5416138;26;20224;-85
2024/04/10 02:39:17;;;;;;;9.97;6.30;;;14.60;99.90;;;;;;5414416;26;20243;-84
2024/04/10 02:46:16;;;;;;;11.43;5.97;;;14.60;99.90;;;;;;5414209;26;20216;-85
2024/04/10 02:49:30;;;;;;;11.10;6.17;;;14.60;99.90;;;;;;5414196;26;20232;-82
2024/04/10 02:52:18;;;;;;;11.87;6.40;;;14.50;99.90;;;;;;5414028;26;20261;-82
2024/04/10 02:55:06;;;;;;;11.13;6.07;;;14.50;99.90;;;;;;5416532;26;20224;-82
2024/04/10 02:58:04;;;;;;;11.60;6.37;;;14.50;99.90;;;;;;5412970;26;20217;-81
2024/04/10 03:01:31;;;;;;;9.97;6.30;;;14.50;99.90;;;;;;5416377;26;20619;-81
2024/04/10 03:04:53;;;;;;;10.33;6.30;;;14.40;99.90;;;;;;5414062;26;20275;-82
2024/04/10 03:11:50;;;;;;;11.77;6.23;;;14.30;99.90;;;;;;5414329;26;20220;-83
2024/04/10 03:14:48;;;;;;;12.13;6.03;;;14.30;99.90;;;;;;5415785;26;20316;-83
2024/04/10 03:17:54;;;;;;;9.23;6.23;;;14.30;99.90;;;;;;5414415;26;20330;-83
2024/04/10 03:21:13;;;;;;;10.90;6.43;;;14.30;99.90;;;;;;5411671;26;20251;-79
2024/04/10 03:24:45;;;;;;;10.40;6.47;;;14.30;99.90;;;;;;5412729;26;20216;-81
2024/04/10 03:28:01;;;;;;;11.93;6.93;;;14.30;99.90;;;;;;5413903;26;20328;-83
2024/04/10 03:31:20;;;;;;;10.27;7.00;;;14.30;99.90;;;;;;5413910;26;20216;-82
2024/04/10 03:34:45;;;;;;;11.57;7.10;;;14.20;99.90;;;;;;5415741;26;20231;-83
2024/04/10 03:38:10;;;;;;;12.50;6.77;;;14.20;99.90;;;;;;5415203;26;20213;-82
2024/04/10 03:41:35;;;;;;;12.57;7.47;;;14.20;99.90;;;;;;5343019;26;20215;-84
2024/04/10 03:44:42;;;;;;;10.50;7.40;;;14.20;99.90;;;;;;5342831;26;20218;-82
2024/04/10 03:51:34;;;;;;;14.23;8.33;;;14.00;99.90;;;;;;5342482;26;20702;-84
2024/04/10 03:54:57;;;;;;;14.93;8.60;;;14.00;99.90;;;;;;5346425;26;20230;-84
2024/04/10 03:58:23;;;;;;;14.70;8.97;;;14.00;99.90;;;;;;5340676;26;20214;-86
2024/04/10 04:01:48;;;;;;;13.90;8.77;;;13.90;99.90;;;;;;5343948;26;20319;-86
2024/04/10 04:05:13;;;;;;;28.50;10.90;;;13.90;99.90;;;;;;5343611;26;20301;-86
2024/04/10 04:12:15;;;;;;;14.87;9.13;;;13.80;99.90;;;;;;5342636;26;20691;-84
2024/04/10 04:15:25;;;;;;;14.83;9.40;;;13.80;99.90;;;;;;5342239;26;20226;-85
2024/04/10 04:18:51;;;;;;;15.50;10.03;;;13.70;99.90;;;;;;5341765;26;20260;-85
2024/04/10 04:22:01;;;;;;;20.47;9.57;;;13.70;99.90;;;;;;5344909;26;20218;-83
2024/04/10 04:28:42;;;;;;;15.70;9.90;;;13.70;99.90;;;;;;5344247;26;20220;-83
2024/04/10 04:31:50;;;;;;;14.90;9.90;;;13.80;99.90;;;;;;5345376;26;20226;-83
2024/04/10 04:34:59;;;;;;;17.63;10.43;;;13.70;99.90;;;;;;5341657;26;20257;-84
2024/04/10 04:42:01;;;;;;;18.00;10.13;;;13.80;99.90;;;;;;5344447;26;20267;-84
2024/04/10 04:45:26;;;;;;;18.23;10.30;;;13.90;99.90;;;;;;5347426;26;20273;-83
2024/04/10 04:59:10;;;;;;;18.00;10.60;;;14.00;99.90;;;;;;5345330;26;20214;-81
2024/04/10 05:02:16;;;;;;;18.87;11.30;;;14.10;99.90;;;;;;5346244;26;20711;-79
2024/04/10 05:05:42;;;;;;;22.93;10.80;;;14.20;99.90;;;;;;5345970;26;20589;-80
2024/04/10 05:09:09;;;;;;;18.90;10.93;;;14.20;99.90;;;;;;5346288;26;20276;-82
2024/04/10 05:12:26;;;;;;;16.83;11.13;;;14.40;99.90;;;;;;5347887;26;20354;-82
2024/04/10 05:15:40;;;;;;;19.47;10.90;;;14.50;99.90;;;;;;5345246;26;20214;-83
2024/04/10 05:22:15;;;;;;;18.87;11.07;;;14.50;99.90;;;;;;5344064;26;20226;-81
2024/04/10 05:25:27;;;;;;;19.93;11.33;;;14.60;99.90;;;;;;5344741;26;20316;-80
2024/04/10 05:28:52;;;;;;;24.33;11.43;;;14.70;99.90;;;;;;5347123;26;20273;-81
2024/04/10 05:32:24;;;;;;;20.70;11.70;;;14.80;99.90;;;;;;5345651;26;20776;-82
2024/04/10 05:35:33;;;;;;;20.90;11.60;;;14.90;99.90;;;;;;5345567;26;20230;-81
2024/04/10 05:38:55;;;;;;;22.93;11.73;;;14.90;99.90;;;;;;5346068;26;20773;-80
2024/04/10 05:42:23;;;;;;;22.07;12.10;;;14.90;99.90;;;;;;5344652;26;20222;-79
2024/04/10 05:45:34;;;;;;;20.27;12.03;;;15.00;99.90;;;;;;5345768;26;20272;-80
2024/04/10 05:52:13;;;;;;;17.93;11.67;;;15.20;99.90;;;;;;5347271;26;20265;-80
2024/04/10 05:55:43;;;;;;;20.13;11.77;;;15.30;99.90;;;;;;5346922;26;20214;-81
2024/04/10 05:59:08;;;;;;;17.93;11.80;;;15.30;99.90;;;;;;5344386;26;20227;-80
2024/04/10 06:02:27;;;;;;;21.10;12.23;;;15.40;99.90;;;;;;5345466;26;20336;-79
2024/04/10 06:05:53;;;;;;;20.97;12.57;;;15.40;99.90;;;;;;5346098;26;20328;-79
2024/04/10 06:09:20;;;;;;;22.23;12.90;;;15.60;99.90;;;;;;5347363;26;20218;-80
2024/04/10 06:12:49;;;;;;;18.43;12.10;;;15.70;99.90;;;;;;5344590;26;20753;-80
2024/04/10 06:19:27;;;;;;;24.70;13.73;;;16.00;99.90;;;;;;5343381;26;20230;-79
2024/04/10 06:22:54;;;;;;;25.23;13.60;;;15.90;99.90;;;;;;5343818;26;20219;-80
2024/04/10 06:26:20;;;;;;;25.93;14.23;;;16.00;99.90;;;;;;5344440;26;20264;-80
2024/04/10 06:29:48;;;;;;;21.67;13.03;;;16.10;99.90;;;;;;5345921;26;20314;-79
2024/04/10 06:33:22;;;;;;;24.33;13.13;;;16.10;99.90;;;;;;5346010;26;20229;-79
2024/04/10 06:36:32;;;;;;;22.37;14.00;;;16.30;99.90;;;;;;5345240;26;20219;-79
2024/04/10 06:40:00;;;;;;;25.50;14.13;;;16.30;99.90;;;;;;5373486;26;20236;-81
2024/04/10 06:43:26;;;;;;;24.30;14.20;;;16.30;99.90;;;;;;5414165;26;20220;-81
2024/04/10 06:46:53;;;;;;;22.20;13.33;;;16.20;99.90;;;;;;5411987;26;20216;-80
2024/04/10 06:50:18;;;;;;;24.10;13.20;;;16.00;99.90;;;;;;5415302;26;20237;-81
2024/04/10 06:53:29;;;;;;;22.23;12.77;;;16.10;99.90;;;;;;5413937;26;20279;-80
2024/04/10 06:57:02;;;;;;;24.67;13.10;;;16.10;99.90;;;;;;5414251;26;20425;-80
2024/04/10 07:00:27;;;;;;;22.13;12.63;;;15.90;99.90;;;;;;5414935;26;20296;-81
2024/04/10 07:03:53;;;;;;;21.13;12.03;;;15.90;99.90;;;;;;5413635;26;20281;-80
2024/04/10 07:06:49;;;;;;;16.73;11.17;;;15.80;99.90;;;;;;5414045;26;20317;-79
2024/04/10 07:10:13;;;;;;;21.57;11.53;;;15.80;99.90;;;;;;5415424;26;20646;-80
2024/04/10 07:17:06;;;;;;;18.97;10.90;;;15.70;99.90;;;;;;5414924;26;20308;-79
2024/04/10 07:20:31;;;;;;;18.33;10.57;;;15.60;99.90;;;;;;5413252;26;20280;-79
2024/04/10 07:24:20;;;;;;;16.40;10.07;;;15.50;99.90;;;;;;5414837;26;20263;-79
2024/04/10 07:27:52;;;;;;;15.27;10.80;;;15.70;99.90;;;;;;5411874;26;20212;-80
2024/04/10 07:34:51;;;;;;;13.97;7.97;;;15.30;99.90;;;;;;5415502;26;20274;-80
2024/04/10 07:38:04;;;;;;;10.43;6.67;;;15.60;99.90;;;;;;5413412;26;20217;-82
2024/04/10 07:44:42;;;;;;;7.90;5.60;;;15.00;99.90;;;;;;5413927;26;20692;-83
2024/04/10 07:48:00;;;;;;;10.70;5.03;;;14.90;99.90;;;;;;5415382;26;20743;-82
2024/04/10 07:51:24;;;;;;;9.10;4.83;;;14.90;99.90;;;;;;5412842;26;20254;-84
2024/04/10 07:55:13;;;;;;;8.07;4.23;;;15.00;99.90;;;;;;5415349;26;20283;-82
2024/04/10 07:58:38;;;;;;;7.63;4.33;;;14.90;99.90;;;;;;5414161;26;20213;-85
2024/04/10 08:01:30;;;;;;;7.67;4.10;;;14.80;99.90;;;;;;5411778;26;20262;-85
2024/04/10 08:04:58;;;;;;;7.30;4.03;;;14.80;99.90;;;;;;5415343;26;20228;-85
2024/04/10 08:08:18;;;;;;;9.07;3.80;;;14.80;99.90;;;;;;5414355;26;20292;-85
2024/04/10 08:11:51;;;;;;;9.73;3.90;;;14.70;99.90;;;;;;5416636;26;20209;-81
2024/04/10 08:15:14;;;;;;;11.77;3.50;;;14.80;99.90;;;;;;5413262;26;20263;-82
2024/04/10 08:18:45;;;;;;;9.40;2.90;;;15.10;99.90;;;;;;5415895;26;20217;-83
2024/04/10 08:22:33;;;;;;;5.67;2.50;;;15.20;99.90;;;;;;5417547;26;20262;-83
2024/04/10 08:25:50;;;;;;;5.20;2.50;;;15.20;99.90;;;;;;5418117;26;20230;-82
2024/04/10 08:29:01;;;;;;;7.30;2.50;;;14.90;99.90;;;;;;5415825;26;20750;-83
2024/04/10 08:32:32;;;;;;;7.27;2.50;;;15.00;99.90;;;;;;5420843;26;20405;-83
2024/04/10 08:36:16;;;;;;;6.37;2.13;;;15.20;99.90;;;;;;5415767;26;20683;-82
2024/04/10 08:39:54;;;;;;;4.93;2.00;;;15.50;99.90;;;;;;5416872;26;20350;-82
2024/04/10 08:43:26;;;;;;;6.57;2.30;;;15.50;99.90;;;;;;5418237;26;20216;-81
2024/04/10 08:47:08;;;;;;;3.60;2.00;;;15.60;99.90;;;;;;5418169;26;20216;-83
2024/04/10 08:50:34;;;;;;;4.30;2.03;;;15.60;99.90;;;;;;5416634;26;20571;-83
2024/04/10 08:54:04;;;;;;;6.87;2.00;;;15.90;99.90;;;;;;5415560;26;20554;-81
2024/04/10 08:57:34;;;;;;;2.53;1.77;;;15.90;99.90;;;;;;5417621;26;20212;-79
2024/04/10 09:04:13;;;;;;;4.87;1.60;;;16.50;99.90;;;;;;5415874;26;20288;-73
2024/04/10 09:07:58;;;;;;;3.93;1.60;;;16.80;99.90;;;;;;5417329;26;20760;-74
2024/04/10 09:11:47;;;;;;;4.33;1.70;;;16.70;99.90;;;;;;5419402;26;20852;-74
2024/04/10 09:15:17;;;;;;;3.47;1.60;;;16.50;99.90;;;;;;5416756;26;20225;-74
2024/04/10 09:18:31;;;;;;;3.53;1.60;;;16.70;99.90;;;;;;5419131;26;20267;-74
2024/04/10 09:21:56;;;;;;;3.20;1.40;;;17.10;99.90;;;;;;5414887;26;20635;-73
2024/04/10 09:25:27;;;;;;;153.53;90.70;;;17.40;99.90;;;;;;5415422;26;20213;-74
2024/04/10 09:32:44;;;;;;;6.67;1.90;;;17.40;99.90;;;;;;5415362;26;20216;-73
2024/04/10 09:36:10;;;;;;;5.20;1.73;;;18.30;99.90;;;;;;5415487;26;20716;-73
2024/04/10 09:46:40;;;;;;;4.97;1.90;;;20.60;99.90;;;;;;5415531;26;20216;-74
2024/04/10 09:50:14;;;;;;;6.70;1.90;;;20.20;99.90;;;;;;5417239;26;20443;-73
2024/04/10 09:53:39;;;;;;;7.33;2.20;;;19.20;99.90;;;;;;5415399;26;20692;-74
2024/04/10 09:57:05;;;;;;;7.47;2.37;;;19.30;99.90;;;;;;5415711;26;20259;-73
2024/04/10 10:08:14;;;;;;;4.80;2.33;;;20.10;99.90;;;;;;5415102;26;20259;-73
2024/04/10 10:11:39;;;;;;;5.90;2.53;;;19.60;99.90;;;;;;5417130;26;20216;-73
2024/04/10 10:15:04;;;;;;;5.80;2.30;;;19.80;99.90;;;;;;5413606;26;20599;-73
2024/04/10 10:18:56;;;;;;;5.70;2.27;;;20.30;99.90;;;;;;5416465;26;20327;-74
2024/04/10 10:22:22;;;;;;;5.20;2.20;;;20.50;99.90;;;;;;5415528;26;20224;-74
2024/04/10 10:25:53;;;;;;;5.40;2.13;;;20.40;99.90;;;;;;5414334;26;20262;-73
2024/04/10 10:33:16;;;;;;;8.27;2.10;;;21.30;99.90;;;;;;5415005;26;20317;-74
2024/04/10 10:36:53;;;;;;;4.60;2.33;;;22.00;99.90;;;;;;5416798;26;20232;-75
2024/04/10 10:40:19;;;;;;;5.27;2.10;;;21.80;99.90;;;;;;5412316;26;20232;-74
2024/04/10 10:43:47;;;;;;;6.30;2.27;;;21.60;99.90;;;;;;5416654;26;20801;-75
2024/04/10 10:47:36;;;;;;;4.72;1.90;;;21.90;99.90;;;;;;5417812;26;20481;-75
2024/04/10 10:51:07;;;;;;;8.53;2.17;;;22.10;99.90;;;;;;5416114;26;20224;-75
2024/04/10 10:54:47;;;;;;;5.70;2.37;;;22.50;99.90;;;;;;5416090;26;20761;-74
2024/04/10 10:58:12;;;;;;;4.40;1.80;;;23.20;99.90;;;;;;5416192;26;20209;-74
2024/04/10 11:01:37;;;;;;;4.47;1.93;;;23.60;98.10;;;;;;5415973;26;20212;-74
2024/04/10 11:08:27;;;;;;;6.25;2.20;;;22.60;98.40;;;;;;5414312;26;20230;-75
2024/04/10 11:11:53;;;;;;;9.45;2.33;;;22.90;96.40;;;;;;5415063;26;20255;-74
2024/04/10 11:15:18;;;;;;;5.80;1.88;;;23.80;96.50;;;;;;5414595;26;20590;-74
2024/04/10 11:18:43;;;;;;;5.80;2.55;;;24.30;95.40;;;;;;5415298;26;20313;-76
2024/04/10 11:21:56;;;;;;;6.40;2.10;;;24.50;94.20;;;;;;5413519;26;20297;-74
2024/04/10 11:25:21;;;;;;;4.97;2.15;;;23.90;93.10;;;;;;5413367;26;20251;-76
2024/04/10 11:35:59;;;;;;;3.00;1.77;;;24.30;94.40;;;;;;5414649;26;20296;-76
2024/04/10 11:45:49;;;;;;;5.57;2.00;;;24.00;91.40;;;;;;5343781;26;20382;-74
2024/04/10 11:49:15;;;;;;;4.75;1.80;;;23.60;91.20;;;;;;5346123;26;20883;-74
2024/04/10 11:52:27;;;;;;;4.55;1.75;;;24.50;90.00;;;;;;5343311;26;20261;-76
2024/04/10 11:55:15;;;;;;;5.75;2.00;;;24.80;86.70;;;;;;5348024;26;20351;-76
2024/04/10 12:08:32;;;;;;;3.13;1.70;;;25.70;84.80;;;;;;5348187;26;20261;-76
2024/04/10 12:11:52;;;;;;;5.13;1.80;;;26.30;86.60;;;;;;5346081;26;20298;-76
2024/04/10 12:15:08;;;;;;;9.57;1.80;;;26.90;83.50;;;;;;5348078;26;20215;-75
2024/04/10 12:18:01;;;;;;;5.88;2.30;;;27.10;81.90;;;;;;5349026;26;20328;-75
2024/04/10 12:21:08;;;;;;;5.10;2.00;;;24.60;82.40;;;;;;5348093;26;20230;-76
2024/04/10 12:24:14;;;;;;;4.55;1.73;;;23.60;87.90;;;;;;5349083;26;20264;-76
2024/04/10 12:27:17;;;;;;;5.97;2.28;;;24.60;87.20;;;;;;5348973;26;20214;-77
2024/04/10 12:30:05;;;;;;;4.38;2.17;;;24.50;87.30;;;;;;5347709;26;20218;-77
2024/04/10 12:33:11;;;;;;;5.85;2.60;;;25.00;84.70;;;;;;5346689;26;20227;-77
2024/04/10 12:39:51;;;;;;;4.88;2.00;;;24.80;85.80;;;;;;5360637;26;20271;-77
2024/04/10 12:43:14;;;;;;;7.50;2.20;;;24.90;84.60;;;;;;5418126;26;20224;-77
2024/04/10 12:49:59;;;;;;;7.72;2.20;;;25.20;84.20;;;;;;5415984;26;20224;-77
2024/04/10 12:52:59;;;;;;;5.78;1.90;;;24.70;85.10;;;;;;5415990;26;20699;-77
2024/04/10 12:56:25;;;;;;;5.30;1.67;;;24.70;84.90;;;;;;5417363;26;20213;-77
2024/04/10 13:02:52;;;;;;;5.30;2.00;;;23.80;82.90;;;;;;5416210;26;20212;-77
2024/04/10 13:06:02;;;;;;;4.55;2.00;;;23.70;86.70;;;;;;5415336;26;20228;-77
2024/04/10 13:09:03;;;;;;;4.65;2.20;;;23.70;85.60;;;;;;5416499;26;20789;-77
2024/04/10 13:12:24;;;;;;;6.47;2.40;;;23.60;86.30;;;;;;5415744;26;20572;-78
2024/04/10 13:15:21;;;;;;;7.20;2.03;;;22.30;89.40;;;;;;5416031;26;20263;-77
2024/04/10 13:18:30;;;;;;;3.70;2.20;;;22.60;89.40;;;;;;5417730;26;20272;-77
2024/04/10 13:21:39;;;;;;;4.20;2.00;;;22.50;90.80;;;;;;5417787;26;20272;-77
2024/04/10 13:24:27;;;;;;;4.33;1.80;;;22.90;90.50;;;;;;5415792;26;20209;-77
2024/04/10 13:27:41;;;;;;;4.03;2.00;;;23.30;90.00;;;;;;5415757;26;20217;-77
2024/04/10 13:30:32;;;;;;;4.10;2.00;;;22.90;89.70;;;;;;5417645;26;20612;-78
2024/04/10 13:33:41;;;;;;;3.90;1.90;;;21.70;90.90;;;;;;5415495;26;20276;-78
2024/04/10 13:36:48;;;;;;;3.37;1.97;;;21.70;92.10;;;;;;5415360;26;20614;-77
2024/04/10 13:39:35;;;;;;;4.20;2.20;;;21.90;91.60;;;;;;5414088;26;20255;-77
2024/04/10 13:42:41;;;;;;;5.67;2.33;;;21.20;92.00;;;;;;5414450;26;20248;-77
2024/04/10 13:49:16;;;;;;;3.47;2.20;;;19.90;94.60;;;;;;5414989;26;20566;-77
2024/04/10 13:52:13;;;;;;;6.80;2.77;;;19.80;94.10;;;;;;5415500;26;20699;-77
2024/04/10 13:55:44;;;;;;;4.97;2.60;;;19.60;95.00;;;;;;5416762;26;20260;-77
2024/04/10 13:59:10;;;;;;;3.70;2.30;;;19.10;96.40;;;;;;5418735;26;20620;-77
2024/04/10 14:01:57;;;;;;;5.17;2.50;;;18.90;97.30;;;;;;5416142;26;20623;-77
2024/04/10 14:05:08;;;;;;;6.50;2.77;;;18.90;98.10;;;;;;5415663;26;20228;-77
2024/04/10 14:08:17;;;;;;;6.23;2.60;;;18.30;99.50;;;;;;5391329;26;20781;-75
2024/04/10 14:18:21;;;;;;;4.50;2.33;;;18.40;99.90;;;;;;5416578;26;20262;-77
2024/04/10 14:21:27;;;;;;;5.30;2.67;;;18.50;99.90;;;;;;5414264;26;20224;-77
2024/04/10 14:24:15;;;;;;;6.50;2.80;;;18.10;99.90;;;;;;5416810;26;20220;-76
2024/04/10 14:27:09;;;;;;;7.23;2.60;;;17.70;99.90;;;;;;5414896;26;20641;-76
2024/04/10 14:30:02;;;;;;;9.33;2.67;;;17.70;99.90;;;;;;5415428;26;20555;-74
2024/04/10 14:33:37;;;;;;;4.53;2.37;;;17.40;99.90;;;;;;5415911;26;20224;-76
2024/04/10 14:36:31;;;;;;;4.40;2.30;;;17.50;99.90;;;;;;5415723;26;20285;-74
2024/04/10 14:39:55;;;;;;;8.63;2.30;;;17.40;99.90;;;;;;5415532;26;20778;-75
2024/04/10 14:43:05;;;;;;;4.57;2.40;;;17.80;99.90;;;;;;5418022;26;20209;-74
2024/04/10 14:46:15;;;;;;;6.05;2.30;;;17.40;99.90;;;;;;5415126;26;20415;-75
2024/04/10 14:49:08;;;;;;;5.10;2.10;;;17.30;99.90;;;;;;5415519;26;20580;-76
2024/04/10 14:52:00;;;;;;;3.67;2.30;;;17.40;99.90;;;;;;5412917;26;20565;-77
2024/04/10 14:55:25;;;;;;;4.23;2.60;;;17.20;99.90;;;;;;5416417;26;20228;-76
2024/04/10 14:58:32;;;;;;;5.87;2.67;;;16.90;99.90;;;;;;5414807;26;20259;-76
2024/04/10 15:01:39;;;;;;;4.80;2.90;;;16.70;99.90;;;;;;5412717;26;20213;-76
2024/04/10 15:04:54;;;;;;;4.53;3.00;;;16.60;99.90;;;;;;5414940;26;20333;-76
2024/04/10 15:08:19;;;;;;;4.13;2.80;;;16.50;99.90;;;;;;5414558;26;20259;-75
2024/04/10 15:14:38;;;;;;;3.50;2.33;;;16.70;99.90;;;;;;5414989;26;20658;-76
2024/04/10 15:17:47;;;;;;;5.37;3.10;;;16.80;99.90;;;;;;5416032;26;20590;-75
2024/04/10 15:21:00;;;;;;;4.90;2.83;;;16.90;99.90;;;;;;5414903;26;20333;-74
2024/04/10 15:27:15;;;;;;;5.77;2.90;;;16.60;99.90;;;;;;5412966;26;20259;-75
2024/04/10 15:30:21;;;;;;;7.43;3.40;;;16.60;99.90;;;;;;5414860;26;20266;-74
2024/04/10 15:33:46;;;;;;;5.43;3.30;;;16.30;99.90;;;;;;5413894;26;20695;-75
2024/04/10 15:37:13;;;;;;;7.93;3.03;;;16.50;99.90;;;;;;5413787;26;20326;-76
2024/04/10 15:41:10;;;;;;;5.30;2.80;;;16.40;99.90;;;;;;5414940;26;20333;-75
2024/04/10 15:44:35;;;;;;;4.80;2.47;;;16.60;99.90;;;;;;5412008;26;20806;-75
2024/04/10 15:48:00;;;;;;;194.37;110.97;;;16.30;99.90;;;;;;5413153;26;20216;-74
2024/04/10 15:54:42;;;;;;;5.30;1.90;;;16.40;99.90;;;;;;5415109;26;20283;-74
2024/04/10 15:58:06;;;;;;;6.50;1.90;;;16.30;99.90;;;;;;5416020;26;20232;-74
2024/04/10 16:01:13;;;;;;;2.93;1.47;;;15.80;99.90;;;;;;5413769;26;20220;-75
2024/04/10 16:04:39;;;;;;;3.30;1.30;;;15.60;99.90;;;;;;5412883;26;20732;-76
2024/04/10 16:08:07;;;;;;;6.60;1.50;;;15.60;99.90;;;;;;5415194;26;20224;-76
2024/04/10 16:11:29;;;;;;;5.70;1.40;;;15.50;99.90;;;;;;5413744;26;20325;-76
2024/04/10 16:14:54;;;;;;;4.37;1.60;;;15.50;99.90;;;;;;5411683;26;20212;-75
2024/04/10 16:17:47;;;;;;;3.07;1.40;;;15.80;99.90;;;;;;5414710;26;20317;-75
2024/04/10 16:21:02;;;;;;;6.37;1.57;;;15.70;99.90;;;;;;5415767;26;20247;-76
2024/04/10 16:24:30;;;;;;;4.23;1.80;;;15.70;99.90;;;;;;5413501;26;20263;-76
2024/04/10 16:27:55;;;;;;;3.07;1.70;;;15.40;99.90;;;;;;5411717;26;20555;-76
2024/04/10 16:30:45;;;;;;;2.07;1.50;;;15.50;99.90;;;;;;5414776;26;20708;-75
2024/04/10 16:41:52;;;;;;;6.27;2.10;;;15.10;99.90;;;;;;5418555;26;20228;-76
2024/04/10 16:45:24;;;;;;;6.67;1.97;;;15.10;99.90;;;;;;5416794;26;20259;-74
2024/04/10 16:48:41;;;;;;;3.37;1.73;;;14.80;99.90;;;;;;5418252;26;20208;-76
2024/04/10 17:03:03;;;;;;;4.87;1.70;;;14.90;99.90;;;;;;5415728;26;20324;-77
2024/04/10 17:06:22;;;;;;;3.10;1.70;;;14.80;99.90;;;;;;5415947;26;20259;-77
2024/04/10 17:09:50;;;;;;;5.20;1.93;;;14.80;99.90;;;;;;5414696;26;20216;-77
2024/04/10 17:13:16;;;;;;;5.10;2.30;;;14.80;99.90;;;;;;5417760;26;20254;-78
2024/04/10 17:16:41;;;;;;;4.93;2.20;;;14.70;99.90;;;;;;5416805;26;20216;-78
2024/04/10 17:23:19;;;;;;;4.37;2.10;;;14.70;99.90;;;;;;5417526;26;20294;-77
2024/04/10 17:26:44;;;;;;;4.50;2.20;;;14.60;99.90;;;;;;5416807;26;20266;-78
2024/04/10 17:29:54;;;;;;;4.60;2.00;;;14.60;99.90;;;;;;5415566;26;20627;-77
2024/04/10 17:33:16;;;;;;;4.80;2.20;;;14.60;99.90;;;;;;5416595;26;20276;-77
2024/04/10 17:36:08;;;;;;;3.97;2.13;;;14.60;99.90;;;;;;5415903;26;20236;-77
2024/04/10 17:47:17;;;;;;;5.67;2.37;;;14.50;99.90;;;;;;5415545;26;20282;-77
2024/04/10 17:50:43;;;;;;;5.17;2.50;;;14.40;99.90;;;;;;5415686;26;20258;-77
2024/04/10 17:54:08;;;;;;;4.50;2.10;;;14.40;99.90;;;;;;5415100;26;20627;-77
2024/04/10 17:57:33;;;;;;;5.87;2.53;;;14.40;99.90;;;;;;5415064;26;20217;-77
2024/04/10 18:01:04;;;;;;;3.50;2.10;;;14.30;99.90;;;;;;5415765;26;20761;-77
2024/04/10 18:04:11;;;;;;;6.05;2.88;;;14.30;99.90;;;;;;5414731;26;20343;-77
2024/04/10 18:07:18;;;;;;;4.57;2.40;;;14.30;99.90;;;;;;5416004;26;20237;-77
2024/04/10 18:10:46;;;;;;;5.07;2.30;;;14.20;99.90;;;;;;5416042;26;20216;-77
2024/04/10 18:14:20;;;;;;;5.43;2.30;;;14.10;99.90;;;;;;5414587;26;20218;-76
2024/04/10 18:17:51;;;;;;;4.87;2.90;;;14.00;99.90;;;;;;5416568;26;20549;-76
2024/04/10 18:21:07;;;;;;;5.40;2.80;;;14.10;99.90;;;;;;5415510;26;20231;-77
2024/04/10 18:24:32;;;;;;;4.50;2.67;;;14.00;99.90;;;;;;5414791;26;20217;-77
2024/04/10 18:28:00;;;;;;;6.00;3.00;;;14.10;99.90;;;;;;5416848;26;20276;-77
2024/04/10 18:31:25;;;;;;;6.00;3.00;;;14.10;99.90;;;;;;5416911;26;20262;-77
2024/04/10 18:34:50;;;;;;;5.67;3.20;;;14.20;99.90;;;;;;5415554;26;20236;-77
2024/04/10 18:37:40;;;;;;;5.80;3.17;;;14.30;99.90;;;;;;5415116;26;20596;-77
2024/04/10 18:41:32;;;;;;;8.60;3.60;;;14.30;99.90;;;;;;5398080;26;20274;-77
2024/04/10 18:48:10;;;;;;;7.87;3.50;;;14.30;99.90;;;;;;5414484;26;20782;-77
2024/04/10 18:51:23;;;;;;;5.93;3.43;;;14.40;99.90;;;;;;5414135;26;20240;-76
2024/04/10 18:54:30;;;;;;;7.67;3.67;;;14.40;99.90;;;;;;5416163;26;20306;-77
2024/04/10 18:57:37;;;;;;;7.60;3.70;;;14.20;99.90;;;;;;5413587;26;20257;-76
2024/04/10 19:00:47;;;;;;;7.67;3.67;;;14.40;99.90;;;;;;5414092;26;20746;-77
2024/04/10 19:04:12;;;;;;;6.40;3.70;;;14.10;99.90;;;;;;5414511;26;20320;-77
2024/04/10 19:07:39;;;;;;;107.70;56.70;;;14.10;99.90;;;;;;5415580;26;20280;-73
2024/04/10 19:10:56;;;;;;;10.40;5.37;;;14.10;99.90;;;;;;5415884;26;20755;-76
2024/04/10 19:14:21;;;;;;;10.77;3.80;;;14.10;99.90;;;;;;5414038;26;20220;-75
2024/04/10 19:17:47;;;;;;;7.37;3.23;;;14.20;99.90;;;;;;5411887;26;20255;-73
2024/04/10 19:21:27;;;;;;;6.83;3.23;;;14.10;99.90;;;;;;5415018;26;20225;-73
2024/04/10 19:24:53;;;;;;;6.60;3.23;;;14.20;99.90;;;;;;5415091;26;20687;-73
2024/04/10 19:28:26;;;;;;;8.13;3.13;;;14.10;99.90;;;;;;5416116;26;20212;-74
2024/04/10 19:32:00;;;;;;;7.80;2.93;;;14.00;99.90;;;;;;5415814;26;20212;-73
2024/04/10 19:34:48;;;;;;;8.67;3.30;;;14.00;99.90;;;;;;5415741;26;20227;-74
2024/04/10 19:37:37;;;;;;;6.03;2.93;;;14.00;99.90;;;;;;5412180;26;20229;-73
2024/04/10 19:40:24;;;;;;;6.90;3.03;;;14.00;99.90;;;;;;5412591;26;20712;-73
2024/04/10 19:43:51;;;;;;;5.57;3.30;;;14.10;99.90;;;;;;5415562;26;20517;-74
2024/04/10 19:46:39;;;;;;;7.87;3.20;;;14.10;99.90;;;;;;5415608;26;20258;-73
2024/04/10 19:49:48;;;;;;;7.20;3.17;;;14.20;99.90;;;;;;5415401;26;20231;-74
2024/04/10 19:56:12;;;;;;;6.70;3.17;;;14.20;99.90;;;;;;5413191;26;20333;-73
2024/04/10 19:59:36;;;;;;;6.20;3.13;;;14.20;99.90;;;;;;5414792;26;20272;-74
2024/04/10 20:02:55;;;;;;;6.90;3.10;;;14.00;99.90;;;;;;5414489;26;20264;-76
2024/04/10 20:06:20;;;;;;;7.57;3.07;;;14.10;99.90;;;;;;5414504;26;20284;-75
2024/04/10 20:13:02;;;;;;;7.67;3.13;;;13.90;99.90;;;;;;5413226;26;20222;-75
2024/04/10 20:19:28;;;;;;;7.60;3.22;;;13.90;99.90;;;;;;5416143;26;20406;-80
2024/04/10 20:22:16;;;;;;;4.80;3.10;;;13.80;99.90;;;;;;5416271;26;20217;-74
2024/04/10 20:25:38;;;;;;;7.28;3.10;;;13.80;99.90;;;;;;5416874;26;20339;-73
2024/04/10 20:29:03;;;;;;;5.67;3.07;;;13.80;99.90;;;;;;5416646;26;20305;-75
2024/04/10 20:35:53;;;;;;;7.07;3.20;;;13.70;99.90;;;;;;5418526;26;20232;-74
2024/04/10 20:39:00;;;;;;;6.27;2.97;;;13.80;99.90;;;;;;5418110;26;20750;-73